Tiempo atmosférico en la estación meteorológica de Albarracín, Teruel (1130 m.)



Fecha
DESCASC
Temp. máxima en grados centígrados (hora)
DESCASC
Temp. mínima en grados centígrados (hora)
DESCASC
Temp. media en grados centígrados
DESCASC
Racha de viento máxima en m/sg (hora)
DESCASC
Velocidad máxima media en intervalos de 10 minutos(hora)
DESCASC
Precipitaciones diarias en mm
DESCASC
Precipitaciones de 00:00 a 06:00 en mm
DESCASC
Precipitaciones de 06:00 a 12:00 en mm
DESCASC
Precipitaciones de 12:00 a 18:00 en mm
DESCASC
Precipitaciones de 18:00 a 24:00 en mm
DESCASC
18-01-2018 13.4 (16:10) -3.4 (07:50) 5 5.28 (09:40) 3.06 (10:20) 0 0 0 0 0
17-01-2018 10.1 (14:20) -1.3 (06:00) 4.4 12.78 (13:10) 6.67 (11:20) 0 0 0 0 0
16-01-2018 15.3 (15:30) -1.6 (08:50) 6.9 8.61 (21:30) 4.17 (17:20) 0 0 0 0 0
15-01-2018 8.6 (16:00) 0 (02:10) 4.3 5.56 (16:10) 2.5 (07:40) 0 0 0 0 0
14-01-2018 5.1 (13:10) -2.5 (08:50) 1.3 7.78 (14:10) 5.28 (14:10) 0 0 0 0 0
13-01-2018 8.1 (15:10) -2.4 (05:30) 2.9 9.17 (17:20) 5.56 (15:40) 0.2 0 0 0 0.2
12-01-2018 7.4 (16:40) -0.9 (21:30) 3.3 10.83 (01:00) 6.11 (01:00) 0 0 0 0 0

Gráficas

Temp. máximas Temp. mínimas Temp. medias Precipitaciones Rachas de viento máximas Velocidades máximas media en intervalos de 10 minutos

Datos horarios

Fecha y hora oficial Temperatura (ºC) Velocidad del viento (km/h) Dirección del viento Racha (km/h) Dirección de racha Precipitación (mm) Presión (hPa) Tendencia (hPa) Humedad (%)
2018-01-19 23:00:00 5.1 0 Calma 8 Noroeste 0 -- -- 88
2018-01-19 22:00:00 5.1 6 Noroeste 25 Noroeste 0 -- -- 89
2018-01-19 21:00:00 5.5 12 Noroeste 23 Noroeste 0 -- -- 89
2018-01-19 20:00:00 4.9 4 Noroeste 12 Noroeste 0 -- -- 75
2018-01-19 19:00:00 5.8 4 Oeste 10 Oeste 0 -- -- 68
2018-01-19 18:00:00 8.2 8 Noroeste 19 Norte 0 -- -- 58
2018-01-19 17:00:00 9.9 15 Noroeste 30 Norte 0 -- -- 52
2018-01-19 16:00:00 10.5 12 Noroeste 28 Norte 0 -- -- 52
2018-01-19 15:00:00 10.5 18 Noroeste 40 Oeste 0 -- -- 51
2018-01-19 14:00:00 10.9 10 Noroeste 23 Norte 0 -- -- 48
2018-01-19 13:00:00 9.7 8 Nordeste 17 Nordeste 0 -- -- 60
2018-01-19 12:00:00 7.9 4 Sudeste 10 Sudeste 0 -- -- 68
2018-01-19 11:00:00 3.3 3 Este 6 Este 0 -- -- 75
2018-01-19 10:00:00 -0.7 0 Calma 4 Oeste 0 -- -- 86
2018-01-19 09:00:00 -2.3 2 Noroeste 6 Noroeste 0 -- -- 88
2018-01-19 08:00:00 -2.3 2 Sudeste 8 Sudeste 0 -- -- 86
2018-01-19 07:00:00 -2.1 0 Calma 6 Sudeste 0 -- -- 85
2018-01-19 06:00:00 -1.6 2 Sur 5 Sudeste 0 -- -- 83
2018-01-19 05:00:00 -0.9 0 Calma 14 Sudeste 0 -- -- 80
2018-01-19 04:00:00 -1.1 0 Calma 8 Oeste 0 -- -- 81
2018-01-19 03:00:00 -0.5 4 Oeste 10 Sudeste 0 -- -- 78
2018-01-19 02:00:00 -0.4 4 Sudeste 14 Sudeste 0 -- -- 79
2018-01-19 01:00:00 0.5 4 Sudeste 13 Este 0 -- -- 73
2018-01-19 00:00:00 0.3 4 Norte 14 Nordeste 0 -- -- 75
2018-01-18 23:00:00 0.9 3 Sudeste 9 Este 0 -- -- 71
2018-01-18 22:00:00 1.5 3 Sudeste 6 Sur 0 -- -- 68
2018-01-18 21:00:00 2.6 0 Calma 8 Sudeste 0 -- -- 64
2018-01-18 20:00:00 3.4 0 Calma 8 Oeste 0 -- -- 61
2018-01-18 19:00:00 5.5 0 Calma 5 Noroeste 0 -- -- 53
2018-01-18 18:00:00 7.7 0 Calma 6 Sudeste 0 -- -- 45
2018-01-18 17:00:00 12.7 3 Este 12 Nordeste 0 -- -- 34
2018-01-18 16:00:00 13.2 4 Nordeste 13 Norte 0 -- -- 32
2018-01-18 15:00:00 13.3 5 Nordeste 12 Nordeste 0 -- -- 32
2018-01-18 14:00:00 11.6 7 Norte 14 Norte 0 -- -- 36
2018-01-18 13:00:00 10.1 6 Norte 11 Norte 0 -- -- 41
2018-01-18 12:00:00 8.3 3 Este 15 Sudeste 0 -- -- 47
2018-01-18 11:00:00 4.2 7 Este 19 Sudeste 0 -- -- 59
2018-01-18 10:00:00 0.4 10 Este 19 Este 0 -- -- 72
2018-01-18 09:00:00 -3 3 Nordeste 13 Este 0 -- -- 87
2018-01-18 08:00:00 -3.2 0 Calma 10 Sudeste 0 -- -- 88
2018-01-18 07:00:00 -3 4 Oeste 18 Sudeste 0 -- -- 87
2018-01-18 06:00:00 -2.5 8 Sudeste 12 Sudeste 0 -- -- 88
2018-01-18 05:00:00 -2.6 3 Noroeste 16 Sudeste 0 -- -- 89
2018-01-18 04:00:00 -2.2 0 Calma 13 Este 0 -- -- 88
2018-01-18 03:00:00 -1.5 2 Sur 12 Este 0 -- -- 88
2018-01-18 02:00:00 -0.9 8 Sudeste 17 Sudeste 0 -- -- 86
2018-01-18 01:00:00 -0.9 5 Sur 12 Oeste 0 -- -- 87
2018-01-18 00:00:00 -1 5 Sur 13 Oeste 0 -- -- 88
2018-01-17 23:00:00 -0.5 5 Oeste 10 Noroeste 0 -- -- 86
2018-01-17 22:00:00 0.7 4 Sudoeste 12 Oeste 0 -- -- 84
2018-01-17 21:00:00 1.3 4 Sudeste 7 Sur 0 -- -- 81
2018-01-17 20:00:00 2.8 0 Calma 13 Oeste 0 -- -- 74
2018-01-17 19:00:00 4.9 4 Oeste 14 Oeste 0 -- -- 67
2018-01-17 18:00:00 7.1 7 Noroeste 32 Noroeste 0 -- -- 59
2018-01-17 17:00:00 8.8 23 Noroeste 34 Noroeste 0 -- -- 50
2018-01-17 16:00:00 9.8 19 Noroeste 32 Noroeste 0 -- -- 50
2018-01-17 15:00:00 10.1 19 Noroeste 38 Noroeste 0 -- -- 51
2018-01-17 14:00:00 9.9 19 Norte 46 Noroeste 0 -- -- 53
2018-01-17 13:00:00 9.4 15 Noroeste 34 Noroeste 0 -- -- 60
2018-01-17 12:00:00 7.7 18 Norte 39 Noroeste 0 -- -- 68
2018-01-17 11:00:00 7.3 18 Noroeste 44 Oeste 0 -- -- 70
2018-01-17 10:00:00 6.8 5 Nordeste 14 Oeste 0 -- -- 72
2018-01-17 09:00:00 5.3 4 Oeste 23 Oeste 0 -- -- 78
2018-01-17 08:00:00 5.7 6 Sudoeste 19 Oeste 0 -- -- 79
2018-01-17 07:00:00 4.2 3 Oeste 22 Noroeste 0 -- -- 90
2018-01-17 06:00:00 -1.3 2 Sudoeste 9 Noroeste 0 -- -- 96
2018-01-17 05:00:00 -0.5 2 Norte 10 Oeste 0 -- -- 95
2018-01-17 04:00:00 0.3 0 Calma 7 Norte 0 -- -- 91
2018-01-17 03:00:00 1.6 5 Noroeste 10 Norte 0 -- -- 90
2018-01-17 02:00:00 2.1 0 Calma 7 Noroeste 0 -- -- 87
2018-01-17 01:00:00 4.1 3 Sur 10 Sudeste 0 -- -- 84
2018-01-17 00:00:00 5 5 Sur 15 Oeste 0 -- -- 81
2018-01-16 23:00:00 6.4 5 Oeste 20 Sur 0 -- -- 79
2018-01-16 22:00:00 6.6 4 Sudoeste 31 Oeste 0 -- -- 77
2018-01-16 21:00:00 7.2 7 Oeste 22 Sudoeste 0 -- -- 73
2018-01-16 20:00:00 5.6 3 Noroeste 9 Sudoeste 0 -- -- 77
2018-01-16 19:00:00 8.4 2 Oeste 18 Sudoeste 0 -- -- 67
2018-01-16 18:00:00 11.2 12 Sudoeste 22 Sudoeste 0 -- -- 60
2018-01-16 17:00:00 13.4 13 Sudoeste 21 Sudoeste 0 -- -- 56
2018-01-16 16:00:00 15.3 4 Este 11 Nordeste 0 -- -- 53
2018-01-16 15:00:00 14.3 9 Sudeste 21 Nordeste 0 -- -- 57
2018-01-16 14:00:00 12.3 12 Nordeste 21 Nordeste 0 -- -- 62
2018-01-16 13:00:00 12.3 5 Norte 10 Nordeste 0 -- -- 59
2018-01-16 12:00:00 9.9 5 Norte 12 Norte 0 -- -- 66
2018-01-16 11:00:00 6.2 4 Sudeste 6 Sudeste 0 -- -- 71
2018-01-16 10:00:00 1.4 0 Calma 6 Norte 0 -- -- 81
2018-01-16 09:00:00 -1.5 2 Sudeste 9 Norte 0 -- -- 88
2018-01-16 08:00:00 -1.4 2 Sur 8 Oeste 0 -- -- 85
2018-01-16 07:00:00 -0.5 3 Este 11 Norte 0 -- -- 81
2018-01-16 06:00:00 -1 0 Calma 9 Sur 0 -- -- 79
2018-01-16 05:00:00 -0.2 0 Calma 10 Sudoeste 0 -- -- 73
2018-01-16 04:00:00 1.5 5 Sudoeste 17 Este 0 -- -- 66
2018-01-16 03:00:00 2.5 8 Sudeste 17 Sudeste 0 -- -- 63
2018-01-16 02:00:00 2.6 7 Sudeste 15 Este 0 -- -- 59
2018-01-16 01:00:00 1.7 2 Norte 11 Este 0 -- -- 64
2018-01-16 00:00:00 2.8 2 Nordeste 13 Sudeste 0 -- -- 57
2018-01-15 23:00:00 2.8 5 Sur 19 Sudeste 0 -- -- 63
2018-01-15 22:00:00 2.9 3 Este 17 Sudeste 0 -- -- 69
2018-01-15 21:00:00 3 6 Sudeste 15 Sur 0 -- -- 71
2018-01-15 20:00:00 3.7 5 Sur 18 Sur 0 -- -- 68
2018-01-15 19:00:00 4.1 3 Sur 14 Sudoeste 0 -- -- 67
2018-01-15 18:00:00 4.9 3 Sudoeste 14 Norte 0 -- -- 70
2018-01-15 17:00:00 6.7 5 Norte 20 Norte 0 -- -- 63
2018-01-15 16:00:00 8.6 2 Sudeste 12 Norte 0 -- -- 51
2018-01-15 15:00:00 8 3 Este 10 Sudeste 0 -- -- 54
2018-01-15 14:00:00 7.1 3 Sudeste 12 Nordeste 0 -- -- 57
2018-01-15 13:00:00 5.9 7 Nordeste 12 Nordeste 0 -- -- 61
2018-01-15 12:00:00 3.8 7 Norte 14 Noroeste 0 -- -- 68
2018-01-15 11:00:00 2.8 4 Nordeste 7 Este 0 -- -- 70
2018-01-15 10:00:00 1 2 Nordeste 9 Nordeste 0 -- -- 79
2018-01-15 09:00:00 0.8 3 Norte 12 Oeste 0 -- -- 80
2018-01-15 08:00:00 1 3 Norte 18 Noroeste 0 -- -- 82
2018-01-15 07:00:00 0.8 4 Norte 9 Nordeste 0 -- -- 84
2018-01-15 06:00:00 0.3 3 Sur 9 Este 0 -- -- 89
2018-01-15 05:00:00 0.2 0 Calma 6 Noroeste 0 -- -- 90
2018-01-15 04:00:00 0.1 3 Noroeste 5 Oeste 0 -- -- 89
2018-01-15 03:00:00 0.1 4 Oeste 7 Noroeste 0 -- -- 89
2018-01-15 02:00:00 0.1 3 Sudoeste 6 Oeste 0 -- -- 86
2018-01-15 01:00:00 0.8 0 Calma 5 Sudoeste 0 -- -- 84